Time;durP1;ratioP1;P1;durP2;ratioP2;P2;SDS_P1;SDS_P2;PMS_P1;PMS_P2;Temp;Humidity;BMP_temperature;BMP_pressure;BME280_temperature;BME280_humidity;BME280_pressure;Samples;Min_cycle;Max_cycle;Signal;HPM_P1;HPM_P2
2021/12/20 00:01:02;;;;;;;3.80;1.97;;;1.60;99.90;;;;;;5055393;28;20036;-73
2021/12/20 00:03:28;;;;;;;3.28;1.98;;;1.60;99.90;;;;;;5054757;28;20029;-74
2021/12/20 00:05:54;;;;;;;2.72;1.60;;;1.60;99.90;;;;;;5055215;28;20052;-74
2021/12/20 00:08:20;;;;;;;4.07;1.83;;;1.60;99.90;;;;;;5037206;28;20419;-74
2021/12/20 00:10:46;;;;;;;4.67;1.90;;;1.60;99.90;;;;;;5055186;28;20041;-72
2021/12/20 00:13:11;;;;;;;2.87;1.40;;;1.50;99.90;;;;;;5037076;28;20065;-73
2021/12/20 00:15:37;;;;;;;2.27;1.10;;;1.50;99.90;;;;;;5055059;28;20041;-72
2021/12/20 00:18:03;;;;;;;2.20;0.97;;;1.40;99.90;;;;;;5054937;28;20078;-73
2021/12/20 00:20:29;;;;;;;2.90;1.20;;;1.30;99.90;;;;;;5036995;28;20044;-73
2021/12/20 00:22:54;;;;;;;3.93;1.43;;;1.30;99.90;;;;;;5054557;28;20040;-72
2021/12/20 00:25:20;;;;;;;2.33;1.07;;;1.20;99.90;;;;;;5036678;28;20120;-73
2021/12/20 00:27:46;;;;;;;1.43;0.83;;;1.20;99.90;;;;;;5054627;28;20043;-72
2021/12/20 00:30:12;;;;;;;4.23;1.40;;;1.20;99.90;;;;;;5036460;28;20082;-74
2021/12/20 00:32:38;;;;;;;3.03;1.33;;;1.10;99.90;;;;;;5036519;28;20033;-73
2021/12/20 00:35:06;;;;;;;3.63;1.20;;;1.10;99.90;;;;;;5054480;28;20585;-72
2021/12/20 00:40:23;;;;;;;5.85;1.27;;;1.00;99.90;;;;;;5054178;28;20095;-73
2021/12/20 00:42:55;;;;;;;2.90;1.38;;;1.00;99.90;;;;;;5036369;28;20060;-73
2021/12/20 00:45:23;;;;;;;2.05;1.15;;;1.00;99.90;;;;;;5036294;28;20037;-74
2021/12/20 00:47:50;;;;;;;2.20;1.10;;;1.00;99.90;;;;;;5036711;28;20036;-74
2021/12/20 00:50:18;;;;;;;1.35;1.13;;;1.00;99.90;;;;;;5036667;28;20025;-74
2021/12/20 00:52:44;;;;;;;1.33;0.93;;;0.90;99.90;;;;;;5054343;28;20660;-74
2021/12/20 00:55:12;;;;;;;;;;;0.90;99.90;;;;;;5054586;28;20108;-73
2021/12/20 00:57:38;;;;;;;1.30;0.90;;;0.90;99.90;;;;;;5054268;28;20360;-73
2021/12/20 01:00:06;;;;;;;1.35;0.95;;;0.90;99.90;;;;;;5054177;28;20535;-73
2021/12/20 01:02:32;;;;;;;2.13;0.93;;;0.90;99.90;;;;;;5053971;28;20029;-73
2021/12/20 01:04:58;;;;;;;1.37;0.90;;;0.90;99.90;;;;;;5053660;28;20044;-73
2021/12/20 01:07:24;;;;;;;1.42;1.00;;;1.00;99.90;;;;;;5053903;28;20250;-72
2021/12/20 01:09:50;;;;;;;1.53;1.10;;;1.00;99.90;;;;;;5053772;28;20040;-73
2021/12/20 01:12:20;;;;;;;1.37;0.83;;;1.00;99.90;;;;;;5053767;28;20028;-73
2021/12/20 01:14:46;;;;;;;1.15;0.93;;;1.10;99.90;;;;;;5053477;28;20419;-73
2021/12/20 01:17:12;;;;;;;1.33;1.00;;;1.10;99.90;;;;;;5053547;28;20037;-73
2021/12/20 01:19:39;;;;;;;2.13;1.30;;;1.10;99.90;;;;;;5035481;28;20055;-74
2021/12/20 01:22:05;;;;;;;2.80;1.25;;;1.10;99.90;;;;;;5053272;28;20028;-73
2021/12/20 01:24:33;;;;;;;4.05;1.20;;;1.10;99.90;;;;;;5053574;28;20103;-73
2021/12/20 01:26:59;;;;;;;2.65;1.33;;;1.10;99.90;;;;;;5053380;28;20096;-72
2021/12/20 01:29:25;;;;;;;3.50;1.63;;;1.10;99.90;;;;;;5035507;28;20119;-73
2021/12/20 01:31:50;;;;;;;3.03;1.57;;;1.20;99.90;;;;;;5053522;28;20025;-73
2021/12/20 01:34:16;;;;;;;2.23;1.40;;;1.10;99.90;;;;;;5053336;28;20033;-73
2021/12/20 01:36:43;;;;;;;4.45;1.20;;;1.20;99.90;;;;;;5053550;28;20033;-74
2021/12/20 01:39:09;;;;;;;3.35;1.50;;;1.20;99.90;;;;;;5053166;28;20059;-73
2021/12/20 01:41:43;;;;;;;3.03;1.63;;;1.20;99.90;;;;;;5035547;28;20547;-74
2021/12/20 01:44:09;;;;;;;3.92;1.83;;;1.20;99.90;;;;;;5035045;28;20481;-73
2021/12/20 01:46:35;;;;;;;2.75;1.63;;;1.20;99.90;;;;;;5035178;28;20029;-74
2021/12/20 01:49:04;;;;;;;3.55;1.73;;;1.20;99.90;;;;;;5053313;28;20025;-74
2021/12/20 01:53:59;;;;;;;2.50;1.60;;;1.20;99.90;;;;;;5053396;28;20059;-74
2021/12/20 01:56:26;;;;;;;3.78;1.90;;;1.20;99.90;;;;;;5034663;28;20045;-74
2021/12/20 01:58:52;;;;;;;6.78;2.05;;;1.20;99.90;;;;;;5052870;28;20464;-73
2021/12/20 02:01:19;;;;;;;4.82;2.10;;;1.20;99.90;;;;;;5053239;28;20037;-73
2021/12/20 02:03:49;;;;;;;4.00;1.70;;;1.20;99.90;;;;;;5052728;28;20033;-73
2021/12/20 02:06:35;;;;;;;3.25;1.48;;;1.20;99.90;;;;;;5034863;28;20127;-73
2021/12/20 02:09:11;;;;;;;2.38;1.30;;;1.20;99.90;;;;;;5052471;28;20078;-73
2021/12/20 02:11:39;;;;;;;2.20;1.38;;;1.20;99.90;;;;;;5053172;28;20472;-73
2021/12/20 02:14:06;;;;;;;4.25;1.75;;;1.20;99.90;;;;;;5052692;28;20104;-72
2021/12/20 02:16:32;;;;;;;3.88;1.60;;;1.20;99.90;;;;;;5052981;28;20492;-73
2021/12/20 02:19:10;;;;;;;2.65;1.27;;;1.20;99.90;;;;;;5052551;28;20132;-73
2021/12/20 02:21:37;;;;;;;3.35;1.63;;;1.20;99.90;;;;;;5053093;28;20063;-73
2021/12/20 02:24:03;;;;;;;2.28;1.45;;;1.10;99.90;;;;;;5034390;28;20033;-73
2021/12/20 02:26:29;;;;;;;3.33;1.20;;;1.10;99.90;;;;;;5034586;28;20397;-73
2021/12/20 02:28:59;;;;;;;2.85;1.42;;;1.10;99.90;;;;;;5052111;28;20024;-73
2021/12/20 02:39:25;;;;;;;2.85;1.25;;;1.10;99.90;;;;;;5052014;28;20052;-73
2021/12/20 02:41:51;;;;;;;3.80;1.30;;;1.00;99.90;;;;;;5052060;28;20029;-73
2021/12/20 02:44:19;;;;;;;3.47;1.40;;;1.10;99.90;;;;;;5034314;28;20250;-73
2021/12/20 02:46:52;;;;;;;2.85;1.35;;;1.10;99.90;;;;;;5052413;28;20049;-73
2021/12/20 02:49:27;;;;;;;1.50;1.00;;;1.10;99.90;;;;;;5051840;28;20033;-72
2021/12/20 02:52:06;;;;;;;4.65;1.20;;;1.10;99.90;;;;;;5033809;28;20029;-72
2021/12/20 02:54:32;;;;;;;3.35;1.40;;;1.10;99.90;;;;;;5051913;28;20036;-72
2021/12/20 02:56:59;;;;;;;2.85;1.75;;;1.10;99.90;;;;;;5051799;28;20032;-72
2021/12/20 02:59:25;;;;;;;2.60;1.52;;;1.10;99.90;;;;;;5033890;28;20028;-73
2021/12/20 03:01:56;;;;;;;4.38;1.60;;;1.20;99.90;;;;;;5033244;28;20029;-73
2021/12/20 03:04:22;;;;;;;3.42;1.25;;;1.20;99.90;;;;;;5051357;28;20362;-73
2021/12/20 03:06:53;;;;;;;3.47;1.50;;;1.20;99.90;;;;;;5033728;28;20095;-73
2021/12/20 03:09:22;;;;;;;4.28;1.60;;;1.10;99.90;;;;;;5051599;28;20029;-73
2021/12/20 03:11:55;;;;;;;2.40;1.17;;;1.10;99.90;;;;;;5033831;28;20039;-73
2021/12/20 03:14:29;;;;;;;4.63;1.52;;;1.10;99.90;;;;;;5033764;28;20021;-74
2021/12/20 03:16:55;;;;;;;2.63;1.38;;;1.10;99.90;;;;;;5051662;28;20033;-73
2021/12/20 03:19:21;;;;;;;2.83;1.38;;;1.20;99.90;;;;;;5051480;28;20029;-73
2021/12/20 03:21:47;;;;;;;2.90;1.37;;;1.20;99.90;;;;;;5051496;28;20066;-72
2021/12/20 03:24:13;;;;;;;3.35;1.50;;;1.20;99.90;;;;;;5033730;28;20393;-73
2021/12/20 03:26:39;;;;;;;4.00;1.50;;;1.20;99.90;;;;;;5052092;28;20033;-72
2021/12/20 03:29:05;;;;;;;3.93;1.27;;;1.20;99.90;;;;;;5051432;28;20029;-72
2021/12/20 03:31:31;;;;;;;;;;;1.30;99.90;;;;;;5052266;28;20025;-72
2021/12/20 03:33:58;;;;;;;2.47;1.15;;;1.30;99.90;;;;;;5051461;28;20284;-73
2021/12/20 03:36:24;;;;;;;2.67;1.13;;;1.30;99.90;;;;;;5051838;28;20037;-72
2021/12/20 03:38:49;;;;;;;2.00;1.23;;;1.20;99.90;;;;;;5033306;28;20053;-74
2021/12/20 03:41:15;;;;;;;1.83;1.10;;;1.20;99.90;;;;;;5033537;28;20499;-72
2021/12/20 03:43:41;;;;;;;5.60;1.58;;;1.20;99.90;;;;;;5051365;28;20072;-73
2021/12/20 03:46:07;;;;;;;2.80;1.40;;;1.30;99.90;;;;;;5033601;28;20500;-72
2021/12/20 03:48:33;;;;;;;5.33;1.40;;;1.20;99.90;;;;;;5033352;28;20029;-73
2021/12/20 03:51:01;;;;;;;4.25;1.30;;;1.20;99.90;;;;;;5051536;28;20372;-73
2021/12/20 03:53:28;;;;;;;1.88;1.30;;;1.10;99.90;;;;;;5033726;28;20033;-72
2021/12/20 03:55:54;;;;;;;2.80;1.30;;;1.10;99.90;;;;;;5051763;28;20438;-72
2021/12/20 03:58:20;;;;;;;2.10;1.40;;;1.10;99.90;;;;;;5051495;28;20029;-73
2021/12/20 04:00:46;;;;;;;2.47;1.20;;;1.20;99.90;;;;;;5051048;28;20108;-73
2021/12/20 04:03:14;;;;;;;2.63;1.58;;;1.10;99.90;;;;;;5051416;28;20158;-73
2021/12/20 04:05:41;;;;;;;4.63;1.70;;;1.10;99.90;;;;;;5033572;28;20037;-72
2021/12/20 04:08:07;;;;;;;2.40;1.20;;;1.00;99.90;;;;;;5051215;28;20441;-72
2021/12/20 04:10:34;;;;;;;2.85;1.48;;;1.10;99.90;;;;;;5033414;28;20037;-73
2021/12/20 04:13:00;;;;;;;6.43;1.50;;;1.10;99.90;;;;;;5051228;28;20064;-73
2021/12/20 04:15:25;;;;;;;2.88;1.50;;;1.10;99.90;;;;;;5054610;28;20064;-74
2021/12/20 04:17:53;;;;;;;3.17;1.67;;;1.10;99.90;;;;;;5055175;28;20504;-73
2021/12/20 04:20:18;;;;;;;2.47;1.23;;;1.10;99.90;;;;;;5055003;28;20040;-73
2021/12/20 04:22:44;;;;;;;2.57;1.40;;;1.10;99.90;;;;;;5054836;28;20029;-74
2021/12/20 04:25:10;;;;;;;4.27;1.50;;;1.10;99.90;;;;;;5055129;28;20108;-73
2021/12/20 04:27:37;;;;;;;4.97;2.20;;;1.20;99.90;;;;;;5036997;28;20029;-73
2021/12/20 04:30:09;;;;;;;2.28;1.27;;;1.10;99.90;;;;;;5054727;28;20090;-73
2021/12/20 04:32:36;;;;;;;3.03;1.40;;;1.10;99.90;;;;;;5054693;28;20021;-73
2021/12/20 04:35:02;;;;;;;2.85;1.50;;;1.00;99.90;;;;;;5054385;28;20178;-73
2021/12/20 04:37:28;;;;;;;1.52;1.13;;;1.10;99.90;;;;;;5054647;28;20381;-74
2021/12/20 04:39:54;;;;;;;2.70;1.37;;;1.10;99.90;;;;;;5054384;28;20057;-74
2021/12/20 04:42:19;;;;;;;2.97;1.60;;;1.20;99.90;;;;;;5054604;28;20104;-73
2021/12/20 04:44:45;;;;;;;3.47;1.60;;;1.20;99.90;;;;;;5054121;28;20037;-73
2021/12/20 04:47:11;;;;;;;2.50;1.30;;;1.10;99.90;;;;;;5054434;28;20377;-73
2021/12/20 04:49:36;;;;;;;3.37;1.50;;;1.00;99.90;;;;;;5054212;28;20096;-73
2021/12/20 04:52:02;;;;;;;2.40;1.20;;;1.00;99.90;;;;;;5054140;28;20025;-73
2021/12/20 04:54:28;;;;;;;2.47;1.23;;;0.90;99.90;;;;;;5053650;28;20100;-73
2021/12/20 04:56:54;;;;;;;2.33;1.27;;;0.90;99.90;;;;;;5053891;28;20124;-73
2021/12/20 04:59:19;;;;;;;2.00;1.20;;;0.90;99.90;;;;;;5036072;28;20404;-73
2021/12/20 05:01:45;;;;;;;2.67;1.30;;;1.00;99.90;;;;;;5036356;28;20041;-74
2021/12/20 05:04:11;;;;;;;3.97;1.27;;;0.90;99.90;;;;;;5054018;28;20029;-73
2021/12/20 05:06:37;;;;;;;3.20;1.40;;;1.00;99.90;;;;;;5054304;28;20033;-74
2021/12/20 05:09:05;;;;;;;3.07;1.37;;;0.90;99.90;;;;;;5054031;28;20017;-73
2021/12/20 05:11:33;;;;;;;4.05;1.42;;;0.90;99.90;;;;;;5054447;28;20029;-73
2021/12/20 05:14:00;;;;;;;3.15;1.35;;;1.00;99.90;;;;;;5035816;28;20436;-73
2021/12/20 05:16:26;;;;;;;2.60;1.42;;;1.00;99.90;;;;;;5035872;28;20045;-76
2021/12/20 05:18:52;;;;;;;5.28;1.70;;;0.90;99.90;;;;;;5035864;28;20028;-74
2021/12/20 05:21:18;;;;;;;3.87;1.60;;;1.00;99.90;;;;;;5053957;28;20037;-74
2021/12/20 05:23:43;;;;;;;5.47;1.53;;;1.00;99.90;;;;;;5035626;28;20029;-73
2021/12/20 05:26:09;;;;;;;4.37;1.73;;;0.90;99.90;;;;;;5034482;28;20029;-74
2021/12/20 05:28:35;;;;;;;3.53;1.60;;;0.90;99.90;;;;;;5053596;28;20082;-74
2021/12/20 05:31:01;;;;;;;4.47;1.58;;;0.90;99.90;;;;;;5035680;28;20036;-74
2021/12/20 05:33:27;;;;;;;4.80;1.57;;;0.90;99.90;;;;;;5053398;28;20033;-72
2021/12/20 05:35:53;;;;;;;3.83;2.00;;;0.90;99.90;;;;;;5035482;28;20041;-73
2021/12/20 05:38:19;;;;;;;4.28;1.90;;;0.90;99.90;;;;;;5035303;28;20036;-73
2021/12/20 05:40:46;;;;;;;3.53;1.92;;;0.90;99.90;;;;;;5035031;28;20052;-73
2021/12/20 05:43:11;;;;;;;2.72;1.58;;;0.90;99.90;;;;;;5035234;28;20087;-73
2021/12/20 05:45:37;;;;;;;4.60;1.93;;;0.90;99.90;;;;;;5035242;28;20033;-73
2021/12/20 05:48:04;;;;;;;3.97;1.97;;;0.90;99.90;;;;;;5053066;28;20314;-73
2021/12/20 05:50:29;;;;;;;4.53;1.80;;;1.00;99.90;;;;;;5053412;28;20033;-73
2021/12/20 05:52:55;;;;;;;3.40;2.03;;;1.00;99.90;;;;;;5053213;28;20040;-73
2021/12/20 05:55:21;;;;;;;4.97;1.60;;;1.10;99.90;;;;;;5053058;28;20037;-75
2021/12/20 05:57:47;;;;;;;3.43;1.97;;;1.10;99.90;;;;;;5053002;28;20033;-75
2021/12/20 06:00:18;;;;;;;2.90;1.73;;;1.10;99.90;;;;;;5034937;28;20541;-72
2021/12/20 06:02:46;;;;;;;3.05;1.30;;;1.10;99.90;;;;;;5052927;28;20393;-69
2021/12/20 06:05:12;;;;;;;2.95;1.40;;;1.10;99.90;;;;;;5052669;28;20029;-69
2021/12/20 06:07:41;;;;;;;3.45;1.58;;;1.10;99.90;;;;;;5035264;28;20028;-69
2021/12/20 06:10:09;;;;;;;5.57;1.90;;;1.20;99.90;;;;;;5052481;28;20060;-69
2021/12/20 06:12:35;;;;;;;4.25;1.92;;;1.20;99.90;;;;;;5052223;28;20024;-69
2021/12/20 06:15:05;;;;;;;5.15;2.10;;;1.30;99.90;;;;;;5052340;28;20064;-69
2021/12/20 06:17:31;;;;;;;3.83;1.83;;;1.20;99.90;;;;;;5052336;28;20048;-69
2021/12/20 06:19:57;;;;;;;4.72;2.10;;;1.30;99.90;;;;;;5052079;28;20033;-68
2021/12/20 06:22:23;;;;;;;4.27;1.77;;;1.30;99.90;;;;;;5034023;28;20041;-69
2021/12/20 06:24:48;;;;;;;4.10;1.80;;;1.30;99.90;;;;;;5033992;28;20429;-69
2021/12/20 06:27:14;;;;;;;5.10;1.93;;;1.30;99.90;;;;;;5052388;28;20021;-70
2021/12/20 06:29:40;;;;;;;3.13;1.40;;;1.30;99.90;;;;;;5034072;28;20031;-69
2021/12/20 06:32:06;;;;;;;4.07;2.40;;;1.30;99.90;;;;;;5051971;28;20037;-69
2021/12/20 06:34:32;;;;;;;3.50;1.63;;;1.30;99.90;;;;;;5051982;28;20017;-69
2021/12/20 06:36:57;;;;;;;5.10;1.97;;;1.30;99.90;;;;;;5051826;28;20532;-70
2021/12/20 06:39:23;;;;;;;3.60;1.97;;;1.30;99.90;;;;;;5051724;28;20488;-69
2021/12/20 06:41:52;;;;;;;4.55;2.17;;;1.30;99.90;;;;;;5051785;28;20040;-69
2021/12/20 06:44:18;;;;;;;3.85;2.47;;;1.40;99.90;;;;;;5051959;28;20033;-69
2021/12/20 06:46:44;;;;;;;4.68;2.20;;;1.30;99.90;;;;;;5052430;28;20048;-70
2021/12/20 06:49:11;;;;;;;4.38;1.80;;;1.30;99.90;;;;;;5052062;28;20037;-69
2021/12/20 06:51:43;;;;;;;5.63;2.40;;;1.30;99.90;;;;;;5033953;28;20036;-68
2021/12/20 06:54:15;;;;;;;4.80;2.30;;;1.30;99.90;;;;;;5051504;28;20032;-67
2021/12/20 06:56:41;;;;;;;6.05;2.63;;;1.30;99.90;;;;;;5052058;28;20480;-69
2021/12/20 06:59:07;;;;;;;6.72;2.60;;;1.30;99.90;;;;;;5051767;28;20122;-70
2021/12/20 07:01:33;;;;;;;4.47;2.27;;;1.30;99.90;;;;;;5052019;28;20033;-68
2021/12/20 07:04:01;;;;;;;5.75;2.60;;;1.40;99.90;;;;;;5051331;28;20033;-69
2021/12/20 07:06:27;;;;;;;3.85;2.20;;;1.40;99.90;;;;;;5051983;28;20047;-69
2021/12/20 07:08:52;;;;;;;7.07;4.03;;;1.40;99.90;;;;;;5051425;28;20457;-70
2021/12/20 07:11:18;;;;;;;5.87;2.37;;;1.40;99.90;;;;;;5033977;28;20035;-69
2021/12/20 07:13:44;;;;;;;4.97;2.37;;;1.40;99.90;;;;;;5051120;28;20039;-69
2021/12/20 07:16:10;;;;;;;8.00;3.27;;;1.40;99.90;;;;;;5051319;28;20052;-69
2021/12/20 07:18:36;;;;;;;5.27;2.20;;;1.50;99.90;;;;;;5068816;28;20035;-66
2021/12/20 07:21:02;;;;;;;5.83;2.70;;;1.50;99.90;;;;;;5069471;28;20289;-66
2021/12/20 07:23:28;;;;;;;5.30;2.50;;;1.50;99.90;;;;;;5063473;28;20051;-64
2021/12/20 07:25:53;;;;;;;5.80;2.77;;;1.50;99.90;;;;;;5075195;28;20132;-65
2021/12/20 07:28:19;;;;;;;4.90;2.20;;;1.60;99.90;;;;;;5075750;28;20471;-64
2021/12/20 07:30:46;;;;;;;4.57;2.20;;;1.60;99.90;;;;;;5072331;28;20064;-64
2021/12/20 07:33:14;;;;;;;4.78;2.55;;;1.60;99.90;;;;;;5051722;28;20032;-65
2021/12/20 07:35:41;;;;;;;4.63;2.55;;;1.60;99.90;;;;;;5039485;28;20147;-64
2021/12/20 07:38:11;;;;;;;4.72;2.70;;;1.60;99.90;;;;;;5068285;28;20039;-65
2021/12/20 07:40:37;;;;;;;3.50;1.95;;;1.60;99.90;;;;;;5073389;28;20514;-64
2021/12/20 07:43:03;;;;;;;4.05;2.05;;;1.70;99.90;;;;;;5074687;28;20052;-65
2021/12/20 07:45:29;;;;;;;5.15;2.45;;;1.70;99.90;;;;;;5069252;28;20033;-65
2021/12/20 07:47:55;;;;;;;3.92;2.10;;;1.70;99.90;;;;;;5069005;28;20504;-65
2021/12/20 07:50:22;;;;;;;3.83;2.15;;;1.80;99.90;;;;;;5062732;28;20120;-66
2021/12/20 07:52:48;;;;;;;5.93;2.58;;;2.00;99.90;;;;;;5074646;28;20036;-66
2021/12/20 07:55:15;;;;;;;3.67;2.22;;;2.00;99.90;;;;;;5066183;28;20056;-66
2021/12/20 07:57:41;;;;;;;5.18;2.60;;;2.10;99.90;;;;;;5068829;28;20040;-67
2021/12/20 08:00:09;;;;;;;4.75;2.28;;;2.10;99.90;;;;;;5077224;28;20081;-67
2021/12/20 08:02:35;;;;;;;3.97;2.15;;;2.10;99.90;;;;;;5075668;28;20036;-67
2021/12/20 08:05:01;;;;;;;4.70;2.33;;;2.00;99.90;;;;;;5068042;28;20525;-64
2021/12/20 08:07:27;;;;;;;4.57;2.70;;;2.00;99.90;;;;;;5052584;28;20032;-64
2021/12/20 08:09:52;;;;;;;4.13;2.40;;;2.00;99.90;;;;;;5078379;28;20120;-64
2021/12/20 08:12:18;;;;;;;4.87;2.77;;;2.00;99.90;;;;;;5065354;28;20048;-65
2021/12/20 08:14:44;;;;;;;4.37;2.20;;;2.00;99.90;;;;;;5069973;28;20043;-64
2021/12/20 08:17:10;;;;;;;6.13;2.72;;;2.00;99.90;;;;;;5051601;28;20050;-63
2021/12/20 08:19:36;;;;;;;6.83;2.80;;;2.10;99.90;;;;;;5071521;28;20033;-64
2021/12/20 08:22:02;;;;;;;4.83;2.27;;;2.10;99.90;;;;;;5065264;28;20281;-63
2021/12/20 08:24:28;;;;;;;5.30;2.78;;;2.00;99.90;;;;;;5058277;28;20841;-62
2021/12/20 08:26:53;;;;;;;5.67;2.50;;;2.10;99.90;;;;;;5060664;28;20036;-65
2021/12/20 08:29:19;;;;;;;6.07;2.20;;;2.20;99.90;;;;;;5063711;28;20103;-64
2021/12/20 08:31:45;;;;;;;4.90;2.50;;;2.00;99.90;;;;;;5051539;28;20281;-64
2021/12/20 08:34:10;;;;;;;4.33;2.27;;;2.10;99.90;;;;;;5068438;28;20032;-64
2021/12/20 08:36:37;;;;;;;4.17;2.30;;;2.10;99.90;;;;;;5066156;28;20028;-64
2021/12/20 08:39:03;;;;;;;4.25;2.08;;;2.10;99.90;;;;;;5069191;28;20048;-65
2021/12/20 08:41:28;;;;;;;4.78;2.17;;;2.00;99.90;;;;;;5073487;28;20380;-65
2021/12/20 08:43:54;;;;;;;4.50;2.20;;;2.00;99.90;;;;;;5066122;28;20032;-64
2021/12/20 08:46:20;;;;;;;5.43;2.40;;;2.00;99.90;;;;;;5062711;28;20087;-65
2021/12/20 08:48:48;;;;;;;4.63;2.20;;;1.90;99.90;;;;;;5061172;28;20052;-65
2021/12/20 08:51:14;;;;;;;4.22;2.40;;;1.90;99.90;;;;;;5064606;28;20398;-64
2021/12/20 08:53:41;;;;;;;5.07;2.30;;;1.90;99.90;;;;;;5047861;28;20472;-64
2021/12/20 08:56:11;;;;;;;3.97;2.10;;;1.80;99.90;;;;;;5061493;28;20032;-68
2021/12/20 08:58:37;;;;;;;5.30;2.83;;;1.80;99.90;;;;;;5031185;28;20036;-67
2021/12/20 09:01:03;;;;;;;4.88;2.10;;;1.90;99.90;;;;;;5063273;28;20472;-67
2021/12/20 09:03:29;;;;;;;6.85;2.78;;;1.90;99.90;;;;;;5065363;28;20090;-67
2021/12/20 09:05:55;;;;;;;6.50;2.57;;;1.90;99.90;;;;;;5048643;28;20036;-67
2021/12/20 09:08:22;;;;;;;5.65;2.25;;;1.90;99.90;;;;;;5062018;28;20033;-67
2021/12/20 09:10:48;;;;;;;4.93;2.25;;;1.90;99.90;;;;;;5060614;28;20926;-67
2021/12/20 09:13:14;;;;;;;4.82;2.35;;;2.00;99.90;;;;;;5060600;28;20032;-68
2021/12/20 09:15:41;;;;;;;4.00;2.10;;;1.90;99.90;;;;;;5062904;28;20063;-66
2021/12/20 09:18:08;;;;;;;5.28;2.25;;;2.10;99.90;;;;;;5057717;28;20024;-68
2021/12/20 09:20:36;;;;;;;9.35;3.70;;;2.20;99.90;;;;;;5058484;28;20147;-67
2021/12/20 09:23:06;;;;;;;6.82;2.80;;;2.20;99.90;;;;;;5026922;28;20379;-69
2021/12/20 09:25:35;;;;;;;5.30;2.45;;;2.20;99.90;;;;;;5067791;28;20039;-67
2021/12/20 09:28:02;;;;;;;5.43;2.72;;;2.20;99.90;;;;;;5061167;28;20017;-67
2021/12/20 09:30:29;;;;;;;5.40;2.65;;;2.10;99.90;;;;;;5058526;28;20131;-67
2021/12/20 09:32:55;;;;;;;4.40;2.58;;;2.20;99.90;;;;;;5058313;28;20036;-67
2021/12/20 09:35:22;;;;;;;4.43;2.20;;;2.50;99.90;;;;;;5062857;28;20037;-66
2021/12/20 09:37:50;;;;;;;18.42;7.55;;;2.70;99.90;;;;;;5057202;28;20056;-66
2021/12/20 09:40:27;;;;;;;4.43;1.90;;;3.20;99.90;;;;;;5060450;28;20630;-67
2021/12/20 09:42:54;;;;;;;4.97;2.00;;;3.50;99.90;;;;;;5061901;28;20032;-70
2021/12/20 09:45:22;;;;;;;5.90;2.05;;;4.60;99.90;;;;;;5063892;28;20036;-66
2021/12/20 09:47:49;;;;;;;4.53;1.92;;;4.80;99.90;;;;;;5062752;28;20032;-67
2021/12/20 09:50:15;;;;;;;4.72;2.05;;;4.60;99.90;;;;;;5063249;28;20043;-67
2021/12/20 09:52:46;;;;;;;6.32;2.63;;;4.30;99.90;;;;;;5063673;28;20055;-67
2021/12/20 09:55:14;;;;;;;3.47;2.00;;;4.00;99.90;;;;;;5065013;28;20415;-67
2021/12/20 09:57:42;;;;;;;4.63;1.92;;;3.60;99.90;;;;;;5059527;28;20032;-68
2021/12/20 10:00:10;;;;;;;4.43;2.45;;;3.40;99.90;;;;;;5053311;28;20396;-65
2021/12/20 10:02:36;;;;;;;11.80;6.28;;;3.50;99.90;;;;;;5055270;28;20407;-65
2021/12/20 10:05:03;;;;;;;5.53;3.07;;;3.60;99.90;;;;;;5064623;28;20024;-66
2021/12/20 10:07:29;;;;;;;7.68;3.65;;;3.50;99.90;;;;;;5061561;28;20025;-67
2021/12/20 10:09:55;;;;;;;408.00;261.95;;;3.40;99.90;;;;;;5056824;28;20044;-66
2021/12/20 10:12:24;;;;;;;25.10;15.98;;;3.30;99.90;;;;;;5061481;28;20029;-64
2021/12/20 10:14:55;;;;;;;12.82;9.13;;;3.10;99.90;;;;;;5057307;28;20878;-65
2021/12/20 10:17:22;;;;;;;11.23;4.90;;;2.80;99.90;;;;;;5056401;28;20083;-66
2021/12/20 10:19:49;;;;;;;5.30;2.50;;;3.20;99.90;;;;;;5059684;28;20127;-66
2021/12/20 10:22:24;;;;;;;3.35;1.75;;;3.20;99.90;;;;;;5057581;28;20437;-65
2021/12/20 10:24:50;;;;;;;3.67;2.00;;;3.10;99.90;;;;;;5058618;28;20039;-66
2021/12/20 10:27:29;;;;;;;5.23;2.33;;;3.00;99.90;;;;;;5059340;28;20036;-66
2021/12/20 10:29:54;;;;;;;5.40;1.80;;;2.90;99.90;;;;;;5059191;28;20086;-68
2021/12/20 10:32:40;;;;;;;4.07;1.80;;;2.80;99.90;;;;;;5058207;28;22229;-67
2021/12/20 10:35:24;;;;;;;5.78;2.55;;;2.60;99.90;;;;;;5052120;28;20033;-64
2021/12/20 10:37:51;;;;;;;4.03;2.22;;;2.60;99.90;;;;;;5057388;28;20456;-66
2021/12/20 10:40:16;;;;;;;4.55;1.63;;;2.60;99.90;;;;;;5062481;28;20044;-66
2021/12/20 10:42:42;;;;;;;3.60;1.70;;;2.60;99.90;;;;;;5057906;28;20379;-66
2021/12/20 10:45:19;;;;;;;4.40;2.33;;;2.50;99.90;;;;;;5052201;28;20036;-67
2021/12/20 10:47:46;;;;;;;3.38;1.95;;;2.50;99.90;;;;;;5057777;28;20044;-65
2021/12/20 10:50:31;;;;;;;5.45;2.50;;;2.60;99.90;;;;;;5059179;28;20028;-66
2021/12/20 10:53:12;;;;;;;5.82;3.17;;;2.70;99.90;;;;;;5061648;28;20039;-67
2021/12/20 10:56:06;;;;;;;4.50;2.28;;;2.70;99.90;;;;;;5057669;28;20103;-66
2021/12/20 10:58:36;;;;;;;4.32;1.95;;;2.80;99.90;;;;;;5044920;28;20388;-66
2021/12/20 11:01:02;;;;;;;4.45;2.10;;;2.70;99.90;;;;;;5059655;28;20032;-67
2021/12/20 11:03:35;;;;;;;3.37;2.20;;;2.80;99.90;;;;;;5060571;28;20036;-67
2021/12/20 11:09:05;;;;;;;3.80;1.90;;;3.00;99.90;;;;;;5053252;28;20102;-67
2021/12/20 11:11:37;;;;;;;4.32;1.80;;;3.30;99.90;;;;;;5060589;28;20029;-67
2021/12/20 11:14:04;;;;;;;6.00;2.22;;;3.20;99.90;;;;;;5058657;28;20337;-65
2021/12/20 11:16:43;;;;;;;4.10;2.33;;;3.20;99.90;;;;;;5042752;28;20044;-67
2021/12/20 11:19:16;;;;;;;3.15;1.83;;;3.00;99.90;;;;;;5054692;28;20028;-63
2021/12/20 11:22:09;;;;;;;3.90;2.08;;;3.00;99.90;;;;;;5060993;28;20456;-66
2021/12/20 11:24:42;;;;;;;13.18;6.88;;;2.90;99.90;;;;;;5056794;28;20025;-65
2021/12/20 11:27:12;;;;;;;4.20;2.00;;;2.90;99.90;;;;;;5062125;28;20427;-66
2021/12/20 11:29:40;;;;;;;3.40;1.70;;;2.90;99.90;;;;;;5043124;28;20017;-64
2021/12/20 11:32:07;;;;;;;4.03;2.10;;;2.90;99.90;;;;;;5061454;28;20044;-66
2021/12/20 11:34:34;;;;;;;;;;;2.90;99.90;;;;;;5042315;28;20016;-65
2021/12/20 11:37:00;;;;;;;6.03;2.15;;;3.00;99.90;;;;;;5059909;28;20033;-68
2021/12/20 11:39:26;;;;;;;;;;;3.00;99.90;;;;;;5058334;28;20068;-68
2021/12/20 11:41:53;;;;;;;3.58;1.80;;;3.10;99.90;;;;;;5042890;28;19912;-66
2021/12/20 11:44:23;;;;;;;5.40;2.00;;;3.40;99.90;;;;;;5060649;28;20036;-66
2021/12/20 11:47:08;;;;;;;3.47;2.28;;;3.50;99.90;;;;;;5061122;28;20112;-65
2021/12/20 11:49:35;;;;;;;4.70;2.20;;;3.40;99.90;;;;;;5062015;28;20048;-65
2021/12/20 11:52:18;;;;;;;3.65;2.03;;;3.30;99.90;;;;;;5058923;28;20400;-66
2021/12/20 11:54:51;;;;;;;3.25;1.67;;;3.40;99.90;;;;;;5058196;28;20032;-66
2021/12/20 11:57:36;;;;;;;4.32;1.65;;;3.60;99.90;;;;;;5056783;28;20091;-66
2021/12/20 12:00:23;;;;;;;7.38;3.72;;;3.50;99.90;;;;;;5060444;28;20044;-67
2021/12/20 12:02:53;;;;;;;4.35;1.73;;;3.30;99.90;;;;;;5060934;28;20023;-66
2021/12/20 12:05:31;;;;;;;4.47;2.00;;;3.20;99.90;;;;;;5060159;28;20065;-66
2021/12/20 12:08:32;;;;;;;4.28;2.20;;;3.10;99.90;;;;;;5062104;28;20033;-68
2021/12/20 12:11:07;;;;;;;3.90;1.95;;;2.90;99.90;;;;;;5015170;28;20641;-68
2021/12/20 12:14:03;;;;;;;4.13;2.13;;;2.90;99.90;;;;;;5059806;28;20063;-68
2021/12/20 12:16:59;;;;;;;3.88;2.20;;;2.70;99.90;;;;;;5055022;28;20049;-67
2021/12/20 12:19:47;;;;;;;4.20;2.10;;;2.50;99.90;;;;;;5060886;28;20680;-65
2021/12/20 12:22:33;;;;;;;;;;;2.50;99.90;;;;;;5037649;28;20114;-66
2021/12/20 12:24:59;;;;;;;4.47;1.83;;;2.50;99.90;;;;;;5063025;28;19924;-66
2021/12/20 12:27:28;;;;;;;3.15;1.70;;;2.50;99.90;;;;;;5068575;28;20028;-66
2021/12/20 12:30:12;;;;;;;3.92;1.80;;;2.60;99.90;;;;;;5060658;28;20072;-66
2021/12/20 12:32:44;;;;;;;3.60;1.92;;;2.60;99.90;;;;;;5060965;28;20123;-66
2021/12/20 12:35:42;;;;;;;4.25;2.00;;;2.60;99.90;;;;;;5060253;28;20033;-64
2021/12/20 12:38:34;;;;;;;3.92;2.20;;;2.50;99.90;;;;;;5067521;28;20021;-62
2021/12/20 12:41:06;;;;;;;4.65;2.38;;;2.50;99.90;;;;;;5062861;28;20069;-67
2021/12/20 12:43:53;;;;;;;4.95;2.15;;;2.40;99.90;;;;;;5065516;28;20483;-67
2021/12/20 12:46:41;;;;;;;4.55;2.38;;;2.20;99.90;;;;;;5059343;28;20448;-67
2021/12/20 12:49:22;;;;;;;6.95;2.72;;;2.10;99.90;;;;;;5061075;28;20024;-68
2021/12/20 12:51:54;;;;;;;38.80;21.25;;;2.10;99.90;;;;;;5061340;28;20164;-68
2021/12/20 12:54:32;;;;;;;67.45;43.28;;;2.10;99.90;;;;;;5066275;28;20059;-67
2021/12/20 12:57:13;;;;;;;8.05;4.38;;;2.20;99.90;;;;;;5048276;28;20364;-67
2021/12/20 12:59:47;;;;;;;4.78;2.40;;;2.20;99.90;;;;;;5058352;28;20103;-69
2021/12/20 13:02:23;;;;;;;4.57;2.38;;;2.10;99.90;;;;;;5061308;28;20498;-68
2021/12/20 13:04:54;;;;;;;4.80;2.50;;;2.10;99.90;;;;;;5061221;28;20051;-68
2021/12/20 13:07:22;;;;;;;4.25;1.88;;;2.10;99.90;;;;;;5063382;28;20110;-68
2021/12/20 13:09:49;;;;;;;4.38;1.90;;;2.10;99.90;;;;;;5063925;28;20032;-68
2021/12/20 13:12:25;;;;;;;5.30;2.10;;;2.10;99.90;;;;;;5062359;28;20023;-68
2021/12/20 13:15:04;;;;;;;5.28;2.33;;;2.10;99.90;;;;;;5060350;28;20171;-68
2021/12/20 13:17:38;;;;;;;8.38;2.58;;;2.10;99.90;;;;;;5062298;28;20033;-68
2021/12/20 13:23:25;;;;;;;5.03;2.50;;;2.10;99.90;;;;;;5056045;28;20021;-68
2021/12/20 13:26:00;;;;;;;8.35;2.95;;;2.10;99.90;;;;;;5044503;28;20041;-68